createdAt,value
2018-01-13T00:01:42.299Z,41.80
2018-01-13T00:04:09.834Z,40.20
2018-01-13T00:06:38.115Z,44.40
2018-01-13T00:09:06.410Z,45.30
2018-01-13T00:11:33.914Z,43.23
2018-01-13T00:14:01.439Z,49.73
2018-01-13T00:16:28.945Z,44.23
2018-01-13T00:18:56.472Z,47.40
2018-01-13T00:21:24.006Z,44.17
2018-01-13T00:23:51.511Z,43.87
2018-01-13T00:26:19.816Z,42.17
2018-01-13T00:28:48.106Z,38.47
2018-01-13T00:31:16.395Z,49.40
2018-01-13T00:33:43.898Z,44.17
2018-01-13T00:36:11.423Z,40.77
2018-01-13T00:38:38.927Z,42.37
2018-01-13T00:41:06.458Z,44.83
2018-01-13T00:43:33.966Z,41.27
2018-01-13T00:46:02.268Z,46.00
2018-01-13T00:48:29.819Z,50.03
2018-01-13T00:50:57.326Z,41.83
2018-01-13T00:53:24.826Z,46.20
2018-01-13T00:55:53.119Z,44.20
2018-01-13T00:58:20.631Z,41.97
2018-01-13T01:00:48.163Z,44.13
2018-01-13T01:03:15.674Z,41.40
2018-01-13T01:05:43.964Z,45.07
2018-01-13T01:08:12.230Z,40.43
2018-01-13T01:10:40.527Z,43.00
2018-01-13T01:13:08.051Z,45.17
2018-01-13T01:15:35.562Z,43.67
2018-01-13T01:18:03.094Z,44.20
2018-01-13T01:20:30.602Z,42.70
2018-01-13T01:22:58.142Z,40.67
2018-01-13T01:25:25.647Z,41.90
2018-01-13T01:27:53.198Z,42.10
2018-01-13T01:30:20.705Z,44.20
2018-01-13T01:32:48.207Z,42.00
2018-01-13T01:35:15.739Z,40.17
2018-01-13T01:37:43.247Z,40.30
2018-01-13T01:40:11.544Z,38.97
2018-01-13T01:42:39.811Z,41.40
2018-01-13T01:45:08.107Z,36.93
2018-01-13T01:47:35.619Z,39.73
2018-01-13T01:50:03.148Z,40.10
2018-01-13T01:52:30.678Z,39.13
2018-01-13T01:54:58.186Z,36.23
2018-01-13T01:57:25.710Z,39.67
2018-01-13T01:59:53.219Z,37.60
2018-01-13T02:02:20.748Z,39.50
2018-01-13T02:04:48.250Z,34.80
2018-01-13T02:07:16.560Z,36.90
2018-01-13T02:09:44.066Z,36.43
2018-01-13T02:14:45.542Z,35.23
2018-01-13T02:17:13.066Z,36.80
2018-01-13T02:19:40.586Z,33.67
2018-01-13T02:22:08.884Z,31.27
2018-01-13T02:24:36.390Z,35.43
2018-01-13T02:27:04.022Z,31.00
2018-01-13T02:29:31.514Z,31.00
2018-01-13T02:31:59.023Z,33.17
2018-01-13T02:34:26.558Z,36.97
2018-01-13T02:36:54.827Z,30.53
2018-01-13T02:39:23.118Z,27.87
2018-01-13T02:41:50.618Z,30.43
2018-01-13T02:44:18.137Z,28.30
2018-01-13T02:46:45.685Z,30.23
2018-01-13T02:49:14.009Z,26.70
2018-01-13T02:51:41.512Z,28.27
2018-01-13T02:54:09.778Z,29.67
2018-01-13T02:56:37.302Z,30.10
2018-01-13T02:59:04.802Z,31.57
2018-01-13T03:01:33.098Z,33.10
2018-01-13T03:04:01.366Z,28.57
2018-01-13T03:06:29.655Z,28.40
2018-01-13T03:08:57.200Z,28.10
2018-01-13T03:11:25.486Z,27.70
2018-01-13T03:13:53.759Z,28.80
2018-01-13T03:16:22.058Z,25.50
2018-01-13T03:18:49.594Z,28.17
2018-01-13T03:21:17.864Z,29.77
2018-01-13T03:23:46.190Z,29.40
2018-01-13T03:26:14.446Z,25.80
2018-01-13T03:28:41.979Z,26.40
2018-01-13T03:31:10.246Z,29.60
2018-01-13T03:33:38.514Z,23.30
2018-01-13T03:36:06.042Z,26.57
2018-01-13T03:38:33.573Z,27.90
2018-01-13T03:41:01.074Z,23.93
2018-01-13T03:43:28.596Z,23.80
2018-01-13T03:45:56.102Z,26.00
2018-01-13T03:48:23.627Z,23.30
2018-01-13T03:50:51.127Z,25.50
2018-01-13T03:53:18.659Z,22.90
2018-01-13T03:55:46.922Z,25.17
2018-01-13T03:58:14.447Z,27.00
2018-01-13T04:00:42.718Z,25.20
2018-01-13T04:03:11.014Z,22.63
2018-01-13T04:05:38.536Z,24.17
2018-01-13T04:08:06.036Z,23.67
2018-01-13T04:10:33.562Z,25.17
2018-01-13T04:13:01.836Z,29.57
2018-01-13T04:15:29.365Z,33.90
2018-01-13T04:17:56.896Z,31.10
2018-01-13T04:20:24.400Z,30.37
2018-01-13T04:22:51.941Z,47.23
2018-01-13T04:25:19.445Z,29.70
2018-01-13T04:27:47.720Z,26.70
2018-01-13T04:30:16.020Z,28.60
2018-01-13T04:32:43.522Z,26.97
2018-01-13T04:35:11.046Z,26.47
2018-01-13T04:37:38.546Z,24.57
2018-01-13T04:40:06.074Z,25.70
2018-01-13T04:42:33.574Z,24.60
2018-01-13T04:45:01.098Z,22.80
2018-01-13T04:47:28.599Z,25.20
2018-01-13T04:49:56.891Z,22.77
2018-01-13T04:52:25.186Z,23.10
2018-01-13T04:54:52.712Z,27.27
2018-01-13T04:57:20.996Z,28.37
2018-01-13T04:59:49.283Z,28.23
2018-01-13T05:02:17.570Z,30.43
2018-01-13T05:04:45.074Z,29.10
2018-01-13T05:07:12.599Z,29.13
2018-01-13T05:09:40.103Z,30.67
2018-01-13T05:12:07.627Z,30.30
2018-01-13T05:14:35.136Z,33.23
2018-01-13T05:17:03.430Z,33.33
2018-01-13T05:19:31.719Z,25.50
2018-01-13T05:21:59.222Z,28.53
2018-01-13T05:24:26.744Z,24.90
2018-01-13T05:26:54.275Z,24.77
2018-01-13T05:29:22.570Z,26.60
2018-01-13T05:31:50.076Z,23.10
2018-01-13T05:34:17.601Z,24.63
2018-01-13T05:36:45.102Z,24.33
2018-01-13T05:39:12.635Z,23.10
2018-01-13T05:41:40.133Z,23.03
2018-01-13T05:44:07.672Z,25.87
2018-01-13T05:46:35.166Z,22.60
2018-01-13T05:49:03.439Z,23.90
2018-01-13T05:51:31.741Z,23.33
2018-01-13T05:53:59.274Z,24.27
2018-01-13T05:56:27.542Z,23.03
2018-01-13T05:58:55.913Z,21.20
2018-01-13T06:01:23.383Z,22.60
2018-01-13T06:03:51.651Z,24.50
2018-01-13T06:06:19.178Z,22.20
2018-01-13T06:08:46.677Z,24.87
2018-01-13T06:11:14.962Z,23.37
2018-01-13T06:13:43.234Z,21.37
2018-01-13T06:16:11.522Z,24.13
2018-01-13T06:18:39.786Z,21.70
2018-01-13T06:21:08.074Z,20.60
2018-01-13T06:23:36.340Z,19.47
2018-01-13T06:26:04.718Z,21.67
2018-01-13T06:28:32.990Z,19.67
2018-01-13T06:31:01.271Z,20.30
2018-01-13T06:33:28.802Z,20.40
2018-01-13T06:35:56.344Z,20.67
2018-01-13T06:38:23.843Z,23.37
2018-01-13T06:40:52.113Z,22.43
2018-01-13T06:43:19.638Z,20.90
2018-01-13T06:45:47.161Z,21.20
2018-01-13T06:48:14.691Z,24.10
2018-01-13T06:50:42.227Z,20.90
2018-01-13T06:53:09.725Z,24.80
2018-01-13T06:55:38.014Z,21.80
2018-01-13T06:58:05.517Z,19.27
2018-01-13T07:00:33.148Z,22.43
2018-01-13T07:03:00.648Z,20.83
2018-01-13T07:05:28.150Z,22.93
2018-01-13T07:07:55.742Z,19.13
2018-01-13T07:10:23.242Z,22.30
2018-01-13T07:12:50.753Z,23.93
2018-01-13T07:15:18.282Z,22.20
2018-01-13T07:17:46.547Z,21.00
2018-01-13T07:20:14.839Z,22.90
2018-01-13T07:22:42.358Z,22.80
2018-01-13T07:25:11.504Z,24.30
2018-01-13T07:27:39.015Z,22.83
2018-01-13T07:30:06.585Z,22.67
2018-01-13T07:32:34.089Z,22.40
2018-01-13T07:35:01.622Z,23.77
2018-01-13T07:37:29.909Z,19.83
2018-01-13T07:39:57.438Z,19.57
2018-01-13T07:42:24.966Z,20.90
2018-01-13T07:44:52.465Z,21.60
2018-01-13T07:47:20.778Z,21.10
2018-01-13T07:49:48.307Z,19.63
2018-01-13T07:52:16.573Z,20.80
2018-01-13T07:54:44.100Z,21.90
2018-01-13T07:57:11.598Z,20.27
2018-01-13T07:59:39.900Z,22.17
2018-01-13T08:02:07.407Z,18.97
2018-01-13T08:04:34.912Z,19.50
2018-01-13T08:07:02.440Z,21.57
2018-01-13T08:09:29.940Z,20.73
2018-01-13T08:11:57.494Z,21.10
2018-01-13T08:14:24.999Z,21.17
2018-01-13T08:16:52.528Z,23.30
2018-01-13T08:19:20.022Z,23.73
2018-01-13T08:21:47.551Z,23.70
2018-01-13T08:24:15.046Z,22.47
2018-01-13T08:26:42.570Z,23.80
2018-01-13T08:29:10.074Z,23.93
2018-01-13T08:31:37.595Z,24.90
2018-01-13T08:34:05.094Z,25.20
2018-01-13T08:36:33.386Z,25.30
2018-01-13T08:39:01.650Z,25.30
2018-01-13T08:41:29.951Z,25.80
2018-01-13T08:43:57.451Z,26.10
2018-01-13T08:46:24.946Z,25.30
2018-01-13T08:51:44.508Z,25.10
2018-01-13T08:54:12.076Z,21.40
2018-01-13T08:57:00.252Z,22.07
2018-01-13T08:59:28.544Z,21.10
2018-01-13T09:01:56.472Z,20.53
2018-01-13T09:04:23.999Z,22.37
2018-01-13T09:06:51.507Z,19.00
2018-01-13T09:09:19.798Z,18.33
2018-01-13T09:11:47.304Z,19.53
2018-01-13T09:14:14.827Z,17.77
2018-01-13T09:16:42.331Z,16.37
2018-01-13T09:19:09.856Z,17.13
2018-01-13T09:21:37.362Z,17.20
2018-01-13T09:24:04.904Z,16.37
2018-01-13T09:26:33.175Z,17.30
2018-01-13T09:29:00.706Z,16.97
2018-01-13T09:31:28.207Z,15.67
2018-01-13T09:33:55.717Z,15.90
2018-01-13T09:36:23.257Z,17.00
2018-01-13T09:38:51.532Z,18.10
2018-01-13T09:41:19.822Z,16.70
2018-01-13T09:43:47.339Z,15.47
2018-01-13T09:46:14.875Z,14.10
2018-01-13T09:48:42.398Z,12.53
2018-01-13T09:51:09.935Z,14.03
2018-01-13T09:53:38.209Z,13.00
2018-01-13T09:56:06.507Z,15.47
2018-01-13T09:58:34.011Z,15.17
2018-01-13T10:01:01.536Z,15.27
2018-01-13T10:03:29.051Z,15.80
2018-01-13T10:05:57.374Z,14.67
2018-01-13T10:08:24.885Z,14.80
2018-01-13T10:10:52.419Z,14.47
2018-01-13T10:13:19.923Z,16.20
2018-01-13T10:15:48.228Z,16.43
2018-01-13T10:18:15.728Z,17.43
2018-01-13T10:20:43.303Z,16.23
2018-01-13T10:23:10.834Z,14.87
2018-01-13T10:25:38.368Z,13.47
2018-01-13T10:28:05.904Z,16.20
2018-01-13T10:30:34.217Z,16.30
2018-01-13T10:33:01.740Z,14.80
2018-01-13T10:35:30.011Z,16.40
2018-01-13T10:37:58.319Z,16.73
2018-01-13T10:40:25.830Z,16.53
2018-01-13T10:42:53.356Z,14.30
2018-01-13T10:45:20.863Z,16.00
2018-01-13T10:47:49.159Z,15.20
2018-01-13T10:50:16.658Z,13.90
2018-01-13T10:52:44.195Z,14.37
2018-01-13T10:55:11.700Z,14.97
2018-01-13T10:57:39.208Z,15.30
2018-01-13T11:00:06.745Z,17.50
2018-01-13T11:02:35.013Z,17.07
2018-01-13T11:05:03.325Z,16.77
2018-01-13T11:07:30.831Z,16.73
2018-01-13T11:09:58.363Z,16.50
2018-01-13T11:12:25.915Z,15.87
2018-01-13T11:14:53.434Z,17.83
2018-01-13T11:17:21.727Z,16.13
2018-01-13T11:19:49.236Z,17.60
2018-01-13T11:22:16.771Z,17.30
2018-01-13T11:24:45.064Z,17.73
2018-01-13T11:27:12.576Z,14.77
2018-01-13T11:29:40.176Z,16.43
2018-01-13T11:32:08.495Z,16.63
2018-01-13T11:34:36.811Z,15.47
2018-01-13T11:37:04.316Z,14.53
2018-01-13T11:39:31.863Z,12.60
2018-01-13T11:41:59.392Z,14.57
2018-01-13T11:44:26.928Z,17.40
2018-01-13T11:46:54.468Z,14.90
2018-01-13T11:49:22.763Z,14.40
2018-01-13T11:51:50.263Z,14.60
2018-01-13T11:54:17.793Z,14.57
2018-01-13T11:56:45.301Z,14.60
2018-01-13T11:59:12.834Z,13.10
2018-01-13T12:01:40.336Z,12.40
2018-01-13T12:04:08.631Z,13.07
2018-01-13T12:06:36.139Z,12.13
2018-01-13T12:09:03.766Z,13.30
2018-01-13T12:11:31.271Z,14.53
2018-01-13T12:13:58.794Z,13.10
2018-01-13T12:16:26.308Z,12.00
2018-01-13T12:18:54.602Z,12.03
2018-01-13T12:21:22.173Z,9.20
2018-01-13T12:23:49.708Z,11.40
2018-01-13T12:26:17.984Z,13.00
2018-01-13T12:28:46.260Z,10.70
2018-01-13T12:31:14.552Z,13.57
2018-01-13T12:33:42.078Z,13.63
2018-01-13T12:36:09.588Z,12.10
2018-01-13T12:38:37.119Z,12.70
2018-01-13T12:41:05.394Z,12.50
2018-01-13T12:43:33.698Z,14.00
2018-01-13T12:46:01.229Z,11.90
2018-01-13T12:48:29.507Z,11.83
2018-01-13T12:50:57.807Z,11.90
2018-01-13T12:53:25.316Z,12.33
2018-01-13T12:55:52.856Z,14.23
2018-01-13T12:58:20.360Z,13.57
2018-01-13T13:00:48.642Z,13.80
2018-01-13T13:03:16.945Z,14.23
2018-01-13T13:05:44.603Z,12.23
2018-01-13T13:08:12.106Z,12.40
2018-01-13T13:10:39.607Z,13.90
2018-01-13T13:13:07.140Z,11.83
2018-01-13T13:15:34.642Z,12.23
2018-01-13T13:18:02.179Z,11.93
2018-01-13T13:20:29.687Z,11.50
2018-01-13T13:22:57.213Z,11.30
2018-01-13T13:25:24.718Z,12.03
2018-01-13T13:27:52.262Z,11.30
2018-01-13T13:30:19.766Z,11.97
2018-01-13T13:32:48.031Z,10.60
2018-01-13T13:35:16.335Z,12.13
2018-01-13T13:37:43.839Z,11.67
2018-01-13T13:40:11.367Z,14.67
2018-01-13T13:42:38.884Z,14.57
2018-01-13T13:45:07.189Z,12.63
2018-01-13T13:47:34.700Z,13.73
2018-01-13T13:50:02.235Z,12.30
2018-01-13T13:52:29.735Z,14.90
2018-01-13T13:54:58.015Z,12.73
2018-01-13T13:57:26.327Z,13.87
2018-01-13T13:59:53.851Z,13.43
2018-01-13T14:02:22.127Z,13.60
2018-01-13T14:04:50.423Z,14.50
2018-01-13T14:07:18.699Z,14.50
2018-01-13T14:09:47.005Z,13.57
2018-01-13T14:12:14.531Z,13.40
2018-01-13T14:14:42.807Z,15.23
2018-01-13T14:17:11.104Z,14.10
2018-01-13T14:19:38.640Z,13.40
2018-01-13T14:22:06.913Z,15.07
2018-01-13T14:24:35.206Z,13.40
2018-01-13T14:27:02.713Z,13.60
2018-01-13T14:29:30.254Z,12.87
2018-01-13T14:31:57.817Z,14.50
2018-01-13T14:34:26.056Z,14.00
2018-01-13T14:36:54.355Z,12.97
2018-01-13T14:39:21.868Z,11.97
2018-01-13T14:41:49.402Z,14.60
2018-01-13T14:44:16.907Z,13.40
2018-01-13T14:46:45.206Z,13.73
2018-01-13T14:49:12.718Z,14.73
2018-01-13T14:51:40.251Z,14.43
2018-01-13T14:54:07.757Z,11.43
2018-01-13T14:56:35.286Z,12.17
2018-01-13T14:59:02.794Z,10.67
2018-01-13T15:01:30.335Z,11.57
2018-01-13T15:03:58.608Z,12.47
2018-01-13T15:06:26.883Z,11.57
2018-01-13T15:08:55.182Z,11.23
2018-01-13T15:11:22.687Z,11.27
2018-01-13T15:13:50.259Z,13.30
2018-01-13T15:16:17.767Z,12.23
2018-01-13T15:18:45.300Z,11.63
2018-01-13T15:21:13.567Z,10.83
2018-01-13T15:23:41.863Z,11.10
2018-01-13T15:26:09.366Z,13.70
2018-01-13T15:28:36.892Z,12.43
2018-01-13T15:31:04.404Z,9.43
2018-01-13T15:33:31.931Z,11.37
2018-01-13T15:35:59.455Z,10.67
2018-01-13T15:38:27.752Z,11.43
2018-01-13T15:40:55.259Z,10.47
2018-01-13T15:43:22.763Z,12.80
2018-01-13T15:45:50.298Z,9.23
2018-01-13T15:48:18.575Z,10.10
2018-01-13T15:50:46.869Z,11.67
2018-01-13T15:53:14.371Z,11.07
2018-01-13T15:55:41.912Z,12.73
2018-01-13T15:58:09.419Z,15.77
2018-01-13T16:00:37.723Z,11.53
2018-01-13T16:03:05.230Z,11.60
2018-01-13T16:05:32.735Z,12.30
2018-01-13T16:08:00.275Z,12.30
2018-01-13T16:10:28.567Z,11.53
2018-01-13T16:12:56.840Z,11.43
2018-01-13T16:15:25.146Z,11.90
2018-01-13T16:17:52.651Z,11.07
2018-01-13T16:20:20.199Z,12.80
2018-01-13T16:22:47.711Z,11.10
2018-01-13T16:25:15.222Z,11.40
2018-01-13T16:27:42.751Z,10.47
2018-01-13T16:30:10.254Z,11.17
2018-01-13T16:32:38.559Z,11.80
2018-01-13T16:35:06.068Z,11.43
2018-01-13T16:37:33.591Z,10.17
2018-01-13T16:40:01.126Z,11.70
2018-01-13T16:42:29.399Z,10.23
2018-01-13T16:44:57.690Z,12.00
2018-01-13T16:47:25.305Z,12.10
2018-01-13T16:49:52.833Z,10.20
2018-01-13T16:52:20.336Z,11.63
2018-01-13T16:54:47.862Z,11.40
2018-01-13T16:57:15.372Z,12.43
2018-01-13T16:59:43.647Z,11.87
2018-01-13T17:02:11.943Z,11.53
2018-01-13T17:04:39.454Z,11.57
2018-01-13T17:07:06.982Z,10.53
2018-01-13T17:09:34.488Z,12.33
2018-01-13T17:12:02.028Z,12.60
2018-01-13T17:14:29.530Z,11.80
2018-01-13T17:16:57.062Z,11.93
2018-01-13T17:19:24.590Z,11.13
2018-01-13T17:21:52.120Z,13.33
2018-01-13T17:24:19.627Z,17.97
2018-01-13T17:26:47.150Z,12.37
2018-01-13T17:29:14.661Z,13.00
2018-01-13T17:31:42.941Z,12.23
2018-01-13T17:34:11.240Z,10.97
2018-01-13T17:36:38.743Z,13.03
2018-01-13T17:39:06.272Z,13.10
2018-01-13T17:41:33.775Z,12.43
2018-01-13T17:44:01.311Z,12.30
2018-01-13T17:46:28.812Z,12.67
2018-01-13T17:48:57.091Z,11.97
2018-01-13T17:51:25.390Z,13.20
2018-01-13T17:53:52.935Z,12.40
2018-01-13T17:56:21.216Z,12.37
2018-01-13T17:58:49.486Z,13.00
2018-01-13T18:01:17.783Z,15.37
2018-01-13T18:03:45.291Z,12.53
2018-01-13T18:06:12.814Z,13.23
2018-01-13T18:08:40.316Z,11.90
2018-01-13T18:11:07.847Z,12.27
2018-01-13T18:13:35.356Z,12.80
2018-01-13T18:16:03.659Z,14.10
2018-01-13T18:18:31.164Z,11.90
2018-01-13T18:20:58.691Z,13.70
2018-01-13T18:23:26.231Z,12.30
2018-01-13T18:25:53.739Z,14.17
2018-01-13T18:28:21.245Z,13.67
2018-01-13T18:30:48.785Z,14.53
2018-01-13T18:33:17.084Z,13.23
2018-01-13T18:35:44.626Z,11.87
2018-01-13T18:38:12.908Z,13.70
2018-01-13T18:40:41.207Z,14.03
2018-01-13T18:43:08.717Z,12.20
2018-01-13T18:45:36.242Z,16.13
2018-01-13T18:48:03.751Z,11.87
2018-01-13T18:50:32.051Z,17.27
2018-01-13T18:52:59.564Z,12.40
2018-01-13T18:55:27.096Z,12.17
2018-01-13T18:57:54.605Z,12.73
2018-01-13T19:00:22.914Z,12.93
2018-01-13T19:02:50.420Z,13.40
2018-01-13T19:05:17.950Z,12.33
2018-01-13T19:07:45.475Z,11.13
2018-01-13T19:10:12.981Z,10.87
2018-01-13T19:15:14.318Z,10.47
2018-01-13T19:17:41.851Z,10.53
2018-01-13T19:20:10.122Z,11.87
2018-01-13T19:22:38.430Z,11.67
2018-01-13T19:25:05.937Z,11.60
2018-01-13T19:27:33.519Z,10.77
2018-01-13T19:30:01.805Z,12.00
2018-01-13T19:32:33.655Z,9.43
2018-01-13T19:35:01.963Z,11.20
2018-01-13T19:37:29.491Z,10.77
2018-01-13T19:39:57.759Z,14.07
2018-01-13T19:42:25.327Z,13.53
2018-01-13T19:44:53.604Z,10.27
2018-01-13T19:47:21.880Z,10.30
2018-01-13T19:49:50.308Z,11.10
2018-01-13T19:52:17.811Z,10.87
2018-01-13T19:54:46.153Z,11.30
2018-01-13T19:57:13.675Z,10.80
2018-01-13T19:59:41.221Z,9.90
2018-01-13T20:02:09.569Z,11.43
2018-01-13T20:04:37.111Z,8.43
2018-01-13T20:07:04.612Z,11.00
2018-01-13T20:09:33.993Z,11.20
2018-01-13T20:12:02.409Z,12.07
2018-01-13T20:14:29.963Z,11.17
2018-01-13T20:16:58.268Z,12.43
2018-01-13T20:19:25.803Z,12.50
2018-01-13T20:21:53.315Z,12.60
2018-01-13T20:24:20.845Z,10.27
2018-01-13T20:26:48.431Z,10.13
2018-01-13T20:29:15.989Z,9.60
2018-01-13T20:31:43.599Z,10.90
2018-01-13T20:34:11.869Z,11.03
2018-01-13T20:36:40.173Z,10.17
2018-01-13T20:39:07.721Z,10.20
2018-01-13T20:41:35.259Z,11.40
2018-01-13T20:44:03.544Z,10.23
2018-01-13T20:46:31.912Z,12.37
2018-01-13T20:49:00.182Z,12.37
2018-01-13T20:51:28.483Z,11.27
2018-01-13T20:53:56.037Z,9.97
2018-01-13T20:56:24.348Z,11.83
2018-01-13T20:58:51.855Z,11.80
2018-01-13T21:01:20.208Z,10.50
2018-01-13T21:03:47.799Z,9.20
2018-01-13T21:06:15.331Z,10.97
2018-01-13T21:08:42.863Z,10.73
2018-01-13T21:11:10.371Z,11.00
2018-01-13T21:13:38.671Z,10.93
2018-01-13T21:16:06.207Z,10.80
2018-01-13T21:18:34.484Z,10.13
2018-01-13T21:21:02.785Z,10.20
2018-01-13T21:23:30.294Z,10.80
2018-01-13T21:25:57.827Z,11.00
2018-01-13T21:28:25.335Z,10.63
2018-01-13T21:30:53.687Z,10.53
2018-01-13T21:33:21.316Z,9.63
2018-01-13T21:35:48.852Z,9.60
2018-01-13T21:38:17.227Z,9.27
2018-01-13T21:40:45.527Z,9.83
2018-01-13T21:43:13.128Z,10.90
2018-01-13T21:45:40.644Z,10.07
2018-01-13T21:48:08.175Z,9.57
2018-01-13T21:50:36.512Z,10.47
2018-01-13T21:53:04.045Z,11.87
2018-01-13T21:55:31.552Z,12.03
2018-01-13T21:57:59.093Z,11.57
2018-01-13T22:00:26.596Z,10.90
2018-01-13T22:02:54.895Z,12.47
2018-01-13T22:05:22.403Z,11.97
2018-01-13T22:07:49.931Z,11.50
2018-01-13T22:10:17.480Z,12.40
2018-01-13T22:12:44.979Z,10.50
2018-01-13T22:15:12.488Z,12.37
2018-01-13T22:17:40.019Z,10.33
2018-01-13T22:20:08.294Z,11.17
2018-01-13T22:22:36.588Z,12.77
2018-01-13T22:25:04.100Z,11.73
2018-01-13T22:27:31.631Z,10.60
2018-01-13T22:29:59.152Z,12.70
2018-01-13T22:32:27.453Z,10.13
2018-01-13T22:34:54.958Z,12.57
2018-01-13T22:37:22.489Z,11.30
2018-01-13T22:39:49.994Z,10.93
2018-01-13T22:42:18.307Z,13.00
2018-01-13T22:44:45.816Z,13.00
2018-01-13T22:47:13.328Z,11.10
2018-01-13T22:49:40.855Z,12.23
2018-01-13T22:52:09.136Z,12.47
2018-01-13T22:54:37.428Z,12.97
2018-01-13T22:57:04.941Z,14.10
2018-01-13T22:59:32.472Z,11.80
2018-01-13T23:01:59.972Z,13.03
2018-01-13T23:04:27.505Z,12.47
2018-01-13T23:06:55.065Z,11.40
2018-01-13T23:09:22.612Z,12.33
2018-01-13T23:11:50.124Z,12.50
2018-01-13T23:14:18.400Z,13.80
2018-01-13T23:16:46.691Z,12.93
2018-01-13T23:19:14.207Z,12.43
2018-01-13T23:21:41.736Z,12.60
2018-01-13T23:24:09.248Z,13.03
2018-01-13T23:26:37.547Z,12.50
2018-01-13T23:29:05.056Z,12.97
2018-01-13T23:31:32.592Z,13.30
2018-01-13T23:34:00.124Z,11.33
2018-01-13T23:36:27.632Z,13.53
2018-01-13T23:38:55.159Z,13.70
2018-01-13T23:41:22.664Z,12.60
2018-01-13T23:43:50.299Z,13.77
2018-01-13T23:46:17.808Z,14.47
2018-01-13T23:48:46.079Z,13.50
2018-01-13T23:51:14.383Z,12.50
2018-01-13T23:53:41.896Z,13.00
2018-01-13T23:56:09.419Z,13.73
2018-01-13T23:58:36.919Z,12.80
